Time;durP1;ratioP1;P1;durP2;ratioP2;P2;SDS_P1;SDS_P2;PMS_P1;PMS_P2;Temp;Humidity;BMP_temperature;BMP_pressure;BME280_temperature;BME280_humidity;BME280_pressure;Samples;Min_cycle;Max_cycle;Signal;HPM_P1;HPM_P2
2023/07/01 00:02:09;;;;;;;;;;;;;;;20.24;63.13;97867.91;7361505;19;19919;-70
2023/07/01 00:04:37;;;;;;;;;;;;;;;20.20;62.73;97870.25;7362353;19;19955;-71
2023/07/01 00:07:04;;;;;;;;;;;;;;;20.06;63.55;97874.97;7366298;19;19939;-70
2023/07/01 00:09:31;;;;;;;;;;;;;;;19.90;63.73;97865.72;7360305;19;19929;-71
2023/07/01 00:11:58;;;;;;;;;;;;;;;19.90;63.18;97859.53;7368967;19;19942;-70
2023/07/01 00:14:24;;;;;;;;;;;;;;;19.88;63.74;97854.41;7365272;19;19919;-71
2023/07/01 00:16:51;;;;;;;;;;;;;;;19.74;64.27;97861.81;7363263;19;19922;-70
2023/07/01 00:19:18;;;;;;;;;;;;;;;19.80;63.00;97852.03;7363350;19;19943;-71
2023/07/01 00:21:44;;;;;;;;;;;;;;;19.77;63.68;97865.91;7367361;19;19918;-70
2023/07/01 00:24:11;;;;;;;;;;;;;;;19.60;64.08;97862.19;7375284;19;19935;-71
2023/07/01 00:26:38;;;;;;;;;;;;;;;19.51;64.18;97859.00;7365304;19;19929;-70
2023/07/01 00:29:04;;;;;;;;;;;;;;;19.56;64.23;97864.47;7375304;19;19949;-71
2023/07/01 00:31:31;;;;;;;;;;;;;;;19.45;64.43;97865.25;7370374;19;19989;-70
2023/07/01 00:33:58;;;;;;;;;;;;;;;19.36;64.93;97858.56;7373757;19;19982;-71
2023/07/01 00:36:25;;;;;;;;;;;;;;;19.40;65.05;97852.50;7364963;19;19925;-70
2023/07/01 00:38:52;;;;;;;;;;;;;;;19.44;64.08;97851.03;7372370;19;19929;-70
2023/07/01 00:41:20;;;;;;;;;;;;;;;19.40;64.31;97849.81;7372231;19;19919;-71
2023/07/01 00:43:47;;;;;;;;;;;;;;;19.49;63.57;97851.16;7365829;19;19915;-70
2023/07/01 00:46:16;;;;;;;;;;;;;;;19.30;64.42;97850.38;7373529;19;19953;-70
2023/07/01 00:48:43;;;;;;;;;;;;;;;19.19;63.89;97853.78;7366796;19;19922;-71
2023/07/01 00:51:10;;;;;;;;;;;;;;;19.21;63.91;97849.03;7370500;19;20274;-71
2023/07/01 00:53:39;;;;;;;;;;;;;;;19.17;64.56;97842.50;7369705;19;20511;-70
2023/07/01 00:56:06;;;;;;;;;;;;;;;19.02;63.91;97834.00;7368226;19;19953;-70
2023/07/01 00:58:33;;;;;;;;;;;;;;;19.12;63.19;97845.00;7361355;19;19922;-70
2023/07/01 01:01:05;;;;;;;;;;;;;;;19.03;63.67;97839.09;7374756;19;19930;-70
2023/07/01 01:04:00;;;;;;;;;;;;;;;19.03;64.09;97830.25;7369312;19;19956;-71
2023/07/01 01:06:33;;;;;;;;;;;;;;;18.95;64.21;97835.91;7362776;19;19961;-70
2023/07/01 01:09:15;;;;;;;;;;;;;;;18.88;63.85;97844.03;7374905;19;19936;-70
2023/07/01 01:11:43;;;;;;;;;;;;;;;19.01;64.09;97845.75;7364468;19;19923;-70
2023/07/01 01:14:11;;;;;;;;;;;;;;;18.74;64.43;97843.28;7371198;19;19925;-70
2023/07/01 01:16:38;;;;;;;;;;;;;;;18.69;64.90;97837.78;7365026;19;20252;-70
2023/07/01 01:19:07;;;;;;;;;;;;;;;18.67;64.66;97831.84;7374076;19;19915;-70
2023/07/01 01:21:34;;;;;;;;;;;;;;;18.48;65.78;97838.19;7368557;19;19922;-70
2023/07/01 01:24:05;;;;;;;;;;;;;;;18.60;65.19;97845.28;7371102;19;19911;-70
2023/07/01 01:26:39;;;;;;;;;;;;;;;18.35;66.12;97839.97;7365050;19;20702;-71
2023/07/01 01:29:06;;;;;;;;;;;;;;;18.43;65.77;97845.03;7370775;19;19934;-71
2023/07/01 01:31:33;;;;;;;;;;;;;;;18.29;66.79;97846.16;7366471;19;19923;-70
2023/07/01 01:33:59;;;;;;;;;;;;;;;18.31;66.36;97841.41;7372719;19;19978;-71
2023/07/01 01:36:31;;;;;;;;;;;;;;;18.24;66.41;97839.81;7368479;19;19911;-71
2023/07/01 01:39:00;;;;;;;;;;;;;;;18.31;66.12;97844.09;7370566;19;20280;-71
2023/07/01 01:41:32;;;;;;;;;;;;;;;18.38;65.56;97844.06;7362203;19;19926;-71
2023/07/01 01:44:03;;;;;;;;;;;;;;;18.36;65.78;97841.59;7372580;19;19958;-71
2023/07/01 01:46:29;;;;;;;;;;;;;;;18.23;66.78;97849.72;7362042;19;19919;-70
2023/07/01 01:48:56;;;;;;;;;;;;;;;18.12;67.22;97840.53;7370419;19;20669;-70
2023/07/01 01:51:25;;;;;;;;;;;;;;;18.01;67.19;97843.91;7371012;19;19918;-70
2023/07/01 01:53:52;;;;;;;;;;;;;;;17.91;67.17;97841.72;7375038;19;19914;-71
2023/07/01 01:56:19;;;;;;;;;;;;;;;17.96;66.97;97841.88;7367416;19;19978;-70
2023/07/01 01:58:47;;;;;;;;;;;;;;;17.99;66.64;97849.47;7362737;19;19994;-71
2023/07/01 02:01:14;;;;;;;;;;;;;;;18.08;65.46;97844.66;7370476;19;19952;-72
2023/07/01 02:03:43;;;;;;;;;;;;;;;17.81;66.49;97837.88;7362764;19;19914;-71
2023/07/01 02:06:10;;;;;;;;;;;;;;;17.33;67.70;97836.44;7367336;19;19919;-71
2023/07/01 02:08:37;;;;;;;;;;;;;;;17.71;66.41;97835.63;7365050;19;19919;-71
2023/07/01 02:11:04;;;;;;;;;;;;;;;17.66;66.71;97838.94;7370835;19;19931;-71
2023/07/01 02:13:30;;;;;;;;;;;;;;;17.57;66.69;97836.75;7362958;19;19926;-71
2023/07/01 02:15:58;;;;;;;;;;;;;;;17.70;66.38;97832.13;7368127;19;19934;-71
2023/07/01 02:18:24;;;;;;;;;;;;;;;17.60;66.18;97823.75;7369961;19;19923;-71
2023/07/01 02:20:51;;;;;;;;;;;;;;;17.60;66.94;97828.28;7365723;19;19911;-71
2023/07/01 02:23:17;;;;;;;;;;;;;;;17.60;66.52;97825.59;7371790;19;19918;-71
2023/07/01 02:25:45;;;;;;;;;;;;;;;17.72;65.98;97822.03;7368282;19;20621;-71
2023/07/01 02:28:13;;;;;;;;;;;;;;;17.60;66.94;97820.25;7369020;19;20685;-71
2023/07/01 02:30:40;;;;;;;;;;;;;;;17.57;67.09;97826.03;7364640;19;19923;-71
2023/07/01 02:33:09;;;;;;;;;;;;;;;17.56;67.07;97822.53;7368390;19;20456;-71
2023/07/01 02:35:36;;;;;;;;;;;;;;;17.60;66.96;97822.94;7365747;19;19926;-70
2023/07/01 02:38:03;;;;;;;;;;;;;;;17.55;66.45;97824.38;7369423;19;19927;-70
2023/07/01 02:40:30;;;;;;;;;;;;;;;17.46;65.71;97817.66;7371026;19;19926;-70
2023/07/01 02:42:56;;;;;;;;;;;;;;;17.55;66.54;97821.69;7338109;19;19919;-71
2023/07/01 02:45:26;;;;;;;;;;;;;;;17.61;66.44;97817.34;7371082;19;19925;-70
2023/07/01 02:47:53;;;;;;;;;;;;;;;17.66;66.60;97820.19;7362961;19;19923;-71
2023/07/01 02:50:19;;;;;;;;;;;;;;;17.42;67.05;97813.75;7371781;19;19937;-71
2023/07/01 02:52:46;;;;;;;;;;;;;;;17.33;67.46;97812.38;7365220;19;19914;-70
2023/07/01 02:55:13;;;;;;;;;;;;;;;17.52;66.26;97819.47;7368072;19;19934;-71
2023/07/01 02:57:39;;;;;;;;;;;;;;;17.45;66.93;97817.84;7364288;19;19915;-71
2023/07/01 03:00:10;;;;;;;;;;;;;;;17.47;65.93;97815.78;7367479;19;19933;-71
2023/07/01 03:02:37;;;;;;;;;;;;;;;17.36;66.35;97819.16;7364961;19;19955;-71
2023/07/01 03:05:04;;;;;;;;;;;;;;;17.14;67.29;97827.47;7373237;19;19919;-71
2023/07/01 03:07:31;;;;;;;;;;;;;;;16.90;68.20;97820.94;7370823;19;19946;-71
2023/07/01 03:09:58;;;;;;;;;;;;;;;16.88;68.75;97831.84;7366568;19;19938;-71
2023/07/01 03:12:25;;;;;;;;;;;;;;;17.10;67.54;97827.03;7369977;19;19919;-72
2023/07/01 03:14:51;;;;;;;;;;;;;;;17.16;66.98;97835.25;7368239;19;19929;-71
2023/07/01 03:17:18;;;;;;;;;;;;;;;17.24;67.15;97837.69;7369776;19;19922;-71
2023/07/01 03:19:45;;;;;;;;;;;;;;;17.03;68.01;97836.09;7365289;19;19954;-71
2023/07/01 03:22:12;;;;;;;;;;;;;;;17.01;68.70;97832.81;7372673;19;20006;-71
2023/07/01 03:24:39;;;;;;;;;;;;;;;17.15;68.10;97830.94;7365277;19;19969;-71
2023/07/01 03:27:06;;;;;;;;;;;;;;;17.10;68.63;97842.25;7369141;19;20318;-71
2023/07/01 03:29:33;;;;;;;;;;;;;;;17.11;68.67;97834.06;7369494;19;20328;-70
2023/07/01 03:32:03;;;;;;;;;;;;;;;17.17;68.24;97839.56;7371169;19;19939;-70
2023/07/01 03:34:30;;;;;;;;;;;;;;;17.17;67.94;97834.22;7367444;19;20324;-71
2023/07/01 03:36:57;;;;;;;;;;;;;;;17.04;68.25;97837.78;7355177;19;19925;-71
2023/07/01 03:39:23;;;;;;;;;;;;;;;16.84;69.26;97827.94;7369752;19;19926;-71
2023/07/01 03:41:50;;;;;;;;;;;;;;;16.76;70.11;97832.66;7366385;19;20329;-71
2023/07/01 03:44:17;;;;;;;;;;;;;;;16.70;69.95;97838.84;7372153;19;19922;-71
2023/07/01 03:46:43;;;;;;;;;;;;;;;16.68;70.39;97834.50;7362317;19;19922;-70
2023/07/01 03:49:11;;;;;;;;;;;;;;;16.77;70.30;97839.63;7373165;19;19931;-70
2023/07/01 03:51:38;;;;;;;;;;;;;;;16.78;70.39;97830.63;7362356;19;19998;-70
2023/07/01 03:54:04;;;;;;;;;;;;;;;16.82;70.47;97834.50;7369535;19;19926;-70
2023/07/01 03:56:31;;;;;;;;;;;;;;;16.65;71.74;97829.59;7373945;19;19926;-70
2023/07/01 03:58:58;;;;;;;;;;;;;;;16.52;73.51;97828.78;7375721;19;20344;-70
2023/07/01 04:01:26;;;;;;;;;;;;;;;16.81;72.05;97832.88;7380167;19;19950;-70
2023/07/01 04:03:53;;;;;;;;;;;;;;;16.95;71.11;97829.13;7377194;19;19919;-70
2023/07/01 04:06:20;;;;;;;;;;;;;;;17.08;70.63;97834.44;7369898;19;20659;-70
2023/07/01 04:08:54;;;;;;;;;;;;;;;17.08;70.20;97831.78;7363957;19;19918;-70
2023/07/01 04:11:22;;;;;;;;;;;;;;;17.04;70.49;97827.91;7378280;19;19946;-71
2023/07/01 04:13:48;;;;;;;;;;;;;;;17.09;69.78;97833.44;7377445;19;19918;-70
2023/07/01 04:16:15;;;;;;;;;;;;;;;17.13;70.58;97828.47;7371531;19;19922;-71
2023/07/01 04:18:42;;;;;;;;;;;;;;;17.29;71.16;97830.66;7374609;19;20304;-71
2023/07/01 04:21:08;;;;;;;;;;;;;;;17.48;69.11;97823.63;7382545;19;19911;-71
2023/07/01 04:23:36;;;;;;;;;;;;;;;17.52;69.61;97829.34;7375593;19;19915;-71
2023/07/01 04:26:04;;;;;;;;;;;;;;;17.65;69.84;97828.47;7379286;19;19919;-71
2023/07/01 04:28:30;;;;;;;;;;;;;;;17.81;69.71;97833.31;7375006;19;19915;-71
2023/07/01 04:30:57;;;;;;;;;;;;;;;17.92;68.98;97829.97;7380007;19;20108;-71
2023/07/01 04:33:25;;;;;;;;;;;;;;;18.04;69.13;97823.94;7381562;19;19915;-71
2023/07/01 04:35:52;;;;;;;;;;;;;;;18.17;68.80;97826.50;7382774;19;20005;-71
2023/07/01 04:38:19;;;;;;;;;;;;;;;18.28;67.78;97828.47;7377517;19;20555;-70
2023/07/01 04:40:45;;;;;;;;;;;;;;;18.26;66.59;97825.19;7369997;19;19922;-72
2023/07/01 04:43:16;;;;;;;;;;;;;;;18.24;66.36;97829.94;7371451;19;19923;-70
2023/07/01 04:45:42;;;;;;;;;;;;;;;18.21;66.45;97827.69;7365921;19;20238;-71
2023/07/01 04:48:09;;;;;;;;;;;;;;;18.17;66.48;97824.66;7373412;19;19937;-71
2023/07/01 04:50:36;;;;;;;;;;;;;;;18.23;66.51;97822.94;7370143;19;20748;-71
2023/07/01 04:53:03;;;;;;;;;;;;;;;18.21;66.85;97814.31;7374196;19;19929;-71
2023/07/01 04:55:30;;;;;;;;;;;;;;;18.18;67.68;97806.72;7377076;19;19918;-71
2023/07/01 04:57:56;;;;;;;;;;;;;;;18.42;66.87;97813.09;7368829;19;20809;-70
2023/07/01 05:00:23;;;;;;;;;;;;;;;18.55;66.58;97809.50;7376738;19;19926;-71
2023/07/01 05:02:49;;;;;;;;;;;;;;;18.57;67.24;97805.56;7369449;19;19925;-71
2023/07/01 05:05:16;;;;;;;;;;;;;;;18.60;67.38;97813.13;7376961;19;19947;-71
2023/07/01 05:07:45;;;;;;;;;;;;;;;18.75;66.81;97812.84;7364059;19;20017;-71
2023/07/01 05:10:12;;;;;;;;;;;;;;;18.76;67.15;97813.66;7378769;19;20210;-71
2023/07/01 05:12:38;;;;;;;;;;;;;;;18.96;65.72;97818.81;7373042;19;19939;-71
2023/07/01 05:15:05;;;;;;;;;;;;;;;19.03;65.57;97820.34;7377695;19;19922;-71
2023/07/01 05:17:32;;;;;;;;;;;;;;;19.01;66.13;97816.25;7372321;19;19939;-71
2023/07/01 05:19:59;;;;;;;;;;;;;;;19.16;65.95;97824.75;7374538;19;20286;-71
2023/07/01 05:22:25;;;;;;;;;;;;;;;19.38;64.83;97819.75;7374506;19;19923;-71
2023/07/01 05:24:52;;;;;;;;;;;;;;;19.44;64.08;97816.16;7370582;19;19925;-71
2023/07/01 05:27:19;;;;;;;;;;;;;;;19.51;64.41;97819.56;7373761;19;20711;-71
2023/07/01 05:29:46;;;;;;;;;;;;;;;19.60;64.54;97821.94;7373075;19;20252;-71
2023/07/01 05:32:12;;;;;;;;;;;;;;;19.67;63.84;97812.78;7370370;19;19922;-71
2023/07/01 05:34:39;;;;;;;;;;;;;;;19.79;64.92;97828.91;7368026;19;19922;-71
2023/07/01 05:37:05;;;;;;;;;;;;;;;19.94;63.22;97826.63;7373540;19;19934;-71
2023/07/01 05:39:32;;;;;;;;;;;;;;;19.97;62.66;97819.19;7373291;19;19982;-71
2023/07/01 05:41:59;;;;;;;;;;;;;;;20.05;63.38;97825.03;7371705;19;20409;-71
2023/07/01 05:44:26;;;;;;;;;;;;;;;20.15;63.13;97819.09;7376529;19;19926;-70
2023/07/01 05:46:53;;;;;;;;;;;;;;;20.26;61.97;97820.97;7367850;19;20388;-70
2023/07/01 05:49:20;;;;;;;;;;;;;;;20.34;61.76;97815.25;7374212;19;19918;-70
2023/07/01 05:51:47;;;;;;;;;;;;;;;20.49;58.71;97817.50;7366911;19;19992;-70
2023/07/01 05:54:13;;;;;;;;;;;;;;;20.47;60.60;97818.78;7374072;19;19929;-70
2023/07/01 05:56:40;;;;;;;;;;;;;;;20.53;61.16;97824.03;7366371;19;20298;-70
2023/07/01 05:59:07;;;;;;;;;;;;;;;20.73;60.30;97817.53;7373008;19;19998;-71
2023/07/01 06:01:33;;;;;;;;;;;;;;;20.85;60.09;97814.81;7374808;19;19923;-70
2023/07/01 06:04:01;;;;;;;;;;;;;;;21.01;59.54;97809.56;7369088;19;19923;-70
2023/07/01 06:06:28;;;;;;;;;;;;;;;21.03;56.74;97807.44;7368947;19;19921;-70
2023/07/01 06:08:54;;;;;;;;;;;;;;;21.17;54.81;97808.00;7360392;19;19930;-70
2023/07/01 06:11:22;;;;;;;;;;;;;;;21.27;53.85;97808.22;7372976;19;19919;-70
2023/07/01 06:13:49;;;;;;;;;;;;;;;21.18;52.33;97803.44;7367549;19;19939;-70
2023/07/01 06:16:16;;;;;;;;;;;;;;;21.38;53.85;97805.72;7370007;19;19923;-70
2023/07/01 06:18:43;;;;;;;;;;;;;;;21.59;49.92;97798.88;7365024;19;19922;-70
2023/07/01 06:21:10;;;;;;;;;;;;;;;21.67;51.37;97801.19;7375194;19;19923;-70
2023/07/01 06:23:39;;;;;;;;;;;;;;;21.73;51.17;97805.63;7373802;19;19922;-70
2023/07/01 06:26:09;;;;;;;;;;;;;;;21.77;47.62;97809.44;7370316;19;19923;-70
2023/07/01 06:28:36;;;;;;;;;;;;;;;21.74;49.59;97801.03;7372890;19;19926;-70
2023/07/01 06:31:03;;;;;;;;;;;;;;;21.96;48.86;97803.84;7369159;19;19922;-70
2023/07/01 06:33:30;;;;;;;;;;;;;;;21.75;47.96;97798.13;7369940;19;20555;-70
2023/07/01 06:35:56;;;;;;;;;;;;;;;21.89;48.76;97796.75;7364560;19;19911;-69
2023/07/01 06:38:23;;;;;;;;;;;;;;;22.03;45.81;97793.75;7369691;19;19919;-70
2023/07/01 06:40:50;;;;;;;;;;;;;;;21.98;46.36;97793.66;7368388;19;19919;-70
2023/07/01 06:43:17;;;;;;;;;;;;;;;21.97;46.20;97795.53;7374527;19;19930;-70
2023/07/01 06:45:44;;;;;;;;;;;;;;;22.37;46.35;97796.47;7369221;19;19918;-70
2023/07/01 06:48:11;;;;;;;;;;;;;;;22.44;47.77;97795.25;7369002;19;19914;-70
2023/07/01 06:50:38;;;;;;;;;;;;;;;22.58;45.48;97791.13;7374750;19;19982;-70
2023/07/01 06:53:04;;;;;;;;;;;;;;;22.68;45.52;97792.34;7371286;19;20637;-70
2023/07/01 06:55:31;;;;;;;;;;;;;;;22.57;44.52;97794.91;7372340;19;19919;-70
2023/07/01 06:58:04;;;;;;;;;;;;;;;22.76;44.79;97781.94;7362064;19;19919;-70
2023/07/01 07:00:31;;;;;;;;;;;;;;;22.67;43.67;97780.75;7372518;19;19918;-69
2023/07/01 07:02:57;;;;;;;;;;;;;;;22.86;44.02;97780.47;7371339;19;19929;-70
2023/07/01 07:05:25;;;;;;;;;;;;;;;22.98;43.17;97783.88;7370815;19;19922;-70
2023/07/01 07:07:52;;;;;;;;;;;;;;;23.05;44.59;97784.53;7367723;19;20455;-70
2023/07/01 07:10:27;;;;;;;;;;;;;;;22.63;44.52;97779.63;7372530;19;19911;-70
2023/07/01 07:12:57;;;;;;;;;;;;;;;22.89;42.63;97779.97;7365403;19;19930;-71
2023/07/01 07:15:24;;;;;;;;;;;;;;;23.09;41.49;97776.72;7368520;19;20010;-70
2023/07/01 07:17:51;;;;;;;;;;;;;;;23.03;43.94;97775.84;7365832;19;19946;-70
2023/07/01 07:20:18;;;;;;;;;;;;;;;23.09;44.57;97776.72;7371016;19;19934;-70
2023/07/01 07:22:45;;;;;;;;;;;;;;;23.29;40.61;97768.88;7370549;19;20268;-70
2023/07/01 07:25:15;;;;;;;;;;;;;;;23.52;41.22;97765.09;7372117;19;19951;-70
2023/07/01 07:27:45;;;;;;;;;;;;;;;23.33;40.67;97764.63;7372615;19;19953;-70
2023/07/01 07:30:15;;;;;;;;;;;;;;;23.57;44.07;97767.84;7369232;19;20330;-70
2023/07/01 07:32:42;;;;;;;;;;;;;;;23.67;40.29;97759.00;7373577;19;19929;-70
2023/07/01 07:35:09;;;;;;;;;;;;;;;23.55;42.62;97761.06;7374682;19;19919;-70
2023/07/01 07:37:36;;;;;;;;;;;;;;;23.52;39.01;97750.78;7374305;19;19927;-70
2023/07/01 07:40:05;;;;;;;;;;;;;;;23.70;41.80;97752.28;7368829;19;19918;-70
2023/07/01 07:42:32;;;;;;;;;;;;;;;23.80;42.39;97749.72;7372359;19;19939;-69
2023/07/01 07:44:59;;;;;;;;;;;;;;;24.23;38.91;97745.22;7368959;19;19919;-70
2023/07/01 07:47:27;;;;;;;;;;;;;;;24.32;38.13;97744.47;7371390;19;20020;-71
2023/07/01 07:49:53;;;;;;;;;;;;;;;24.65;40.78;97755.25;7371079;19;19922;-70
2023/07/01 07:52:20;;;;;;;;;;;;;;;25.18;39.09;97751.47;7370659;19;20311;-71
2023/07/01 07:54:47;;;;;;;;;;;;;;;25.09;39.26;97755.75;7368125;19;20029;-70
2023/07/01 07:57:14;;;;;;;;;;;;;;;25.19;41.36;97746.84;7369787;19;19918;-69
2023/07/01 07:59:41;;;;;;;;;;;;;;;25.76;39.63;97742.41;7371363;19;19922;-69
2023/07/01 08:02:08;;;;;;;;;;;;;;;26.31;38.17;97737.28;7365646;19;19915;-69
2023/07/01 08:04:35;;;;;;;;;;;;;;;26.43;36.00;97737.78;7369839;19;19918;-69
2023/07/01 08:07:02;;;;;;;;;;;;;;;26.27;36.76;97729.66;7364953;19;19979;-69
2023/07/01 08:09:29;;;;;;;;;;;;;;;25.97;36.54;97729.69;7368798;19;19918;-69
2023/07/01 08:11:58;;;;;;;;;;;;;;;26.04;36.80;97724.78;7369044;19;19990;-69
2023/07/01 08:14:26;;;;;;;;;;;;;;;26.12;37.49;97729.69;7369258;19;19926;-69
2023/07/01 08:16:53;;;;;;;;;;;;;;;25.89;37.08;97716.69;7365629;19;19939;-69
2023/07/01 08:19:20;;;;;;;;;;;;;;;25.97;38.40;97708.81;7367206;19;19915;-70
2023/07/01 08:21:46;;;;;;;;;;;;;;;25.57;38.38;97721.25;7366194;19;20460;-70
2023/07/01 08:24:13;;;;;;;;;;;;;;;25.29;37.38;97727.94;7368442;19;19925;-70
2023/07/01 08:26:40;;;;;;;;;;;;;;;25.23;40.78;97718.19;7367936;19;19935;-70
2023/07/01 08:29:08;;;;;;;;;;;;;;;25.28;37.91;97712.00;7365756;19;19910;-69
2023/07/01 08:31:34;;;;;;;;;;;;;;;24.96;39.51;97719.16;7367950;19;19914;-70
2023/07/01 08:34:02;;;;;;;;;;;;;;;25.06;38.37;97709.44;7363258;19;19921;-70
2023/07/01 08:36:29;;;;;;;;;;;;;;;25.37;39.04;97711.16;7365702;19;19918;-70
2023/07/01 08:38:55;;;;;;;;;;;;;;;25.60;37.64;97709.88;7363001;19;19929;-70
2023/07/01 08:41:25;;;;;;;;;;;;;;;25.57;36.57;97706.88;7371344;19;20448;-71
2023/07/01 08:43:52;;;;;;;;;;;;;;;25.78;38.07;97694.19;7370459;19;19922;-69
2023/07/01 08:46:19;;;;;;;;;;;;;;;25.97;37.84;97706.13;7373936;19;19926;-70
2023/07/01 08:48:46;;;;;;;;;;;;;;;25.68;38.20;97702.28;7366767;19;19919;-70
2023/07/01 08:51:26;;;;;;;;;;;;;;;26.05;39.34;97691.19;7372970;19;19922;-70
2023/07/01 08:53:53;;;;;;;;;;;;;;;25.80;39.72;97681.97;7371606;19;19915;-69
2023/07/01 08:56:20;;;;;;;;;;;;;;;25.72;38.52;97696.03;7372631;19;19918;-70
2023/07/01 08:58:50;;;;;;;;;;;;;;;25.80;39.56;97691.97;7366501;19;20204;-70
2023/07/01 09:01:17;;;;;;;;;;;;;;;26.10;37.31;97687.69;7376645;19;20587;-69
2023/07/01 09:03:48;;;;;;;;;;;;;;;26.04;38.14;97692.28;7371300;19;19914;-69
2023/07/01 09:06:15;;;;;;;;;;;;;;;26.03;36.72;97691.47;7369853;19;19926;-70
2023/07/01 09:08:42;;;;;;;;;;;;;;;26.15;37.78;97688.50;7375644;19;19978;-69
2023/07/01 09:11:13;;;;;;;;;;;;;;;26.61;38.43;97677.53;7371323;19;19923;-70
2023/07/01 09:13:40;;;;;;;;;;;;;;;26.86;37.39;97670.41;7377468;19;19919;-69
2023/07/01 09:16:06;;;;;;;;;;;;;;;27.63;36.10;97665.34;7373517;19;19926;-69
2023/07/01 09:18:34;;;;;;;;;;;;;;;28.28;33.36;97658.78;7376392;19;19922;-69
2023/07/01 09:21:01;;;;;;;;;;;;;;;28.14;33.94;97659.47;7371107;19;19915;-70
2023/07/01 09:23:29;;;;;;;;;;;;;;;28.43;33.93;97648.56;7375665;19;20681;-69
2023/07/01 09:26:08;;;;;;;;;;;;;;;28.63;32.92;97666.59;7377491;19;20344;-69
2023/07/01 09:28:35;;;;;;;;;;;;;;;28.31;31.12;97653.59;7378562;19;19972;-70
2023/07/01 09:31:03;;;;;;;;;;;;;;;28.46;33.57;97655.34;7377371;19;19933;-69
2023/07/01 09:33:30;;;;;;;;;;;;;;;28.77;33.33;97650.34;7383046;19;19911;-69
2023/07/01 09:36:03;;;;;;;;;;;;;;;28.59;31.55;97641.03;7375693;19;19929;-69
2023/07/01 09:38:30;;;;;;;;;;;;;;;28.53;31.82;97649.56;7382881;19;20364;-71
2023/07/01 09:41:13;;;;;;;;;;;;;;;28.41;31.44;97650.75;7374533;19;19922;-69
2023/07/01 09:43:40;;;;;;;;;;;;;;;27.63;33.02;97640.88;7375112;19;19940;-70
2023/07/01 09:46:08;;;;;;;;;;;;;;;27.59;33.26;97639.81;7367260;19;19963;-69
2023/07/01 09:48:35;;;;;;;;;;;;;;;26.88;32.86;97636.47;7374991;19;19951;-69
2023/07/01 09:51:02;;;;;;;;;;;;;;;27.15;33.96;97641.47;7367769;19;19918;-69
2023/07/01 09:53:30;;;;;;;;;;;;;;;27.10;32.93;97641.50;7373735;19;19918;-69
2023/07/01 09:55:56;;;;;;;;;;;;;;;27.46;33.68;97627.72;7368714;19;19923;-69
2023/07/01 09:58:23;;;;;;;;;;;;;;;27.83;31.91;97626.31;7374900;19;20293;-70
2023/07/01 10:00:50;;;;;;;;;;;;;;;27.65;32.38;97613.41;7369695;19;19915;-70
2023/07/01 10:03:18;;;;;;;;;;;;;;;27.60;31.93;97608.03;7373317;19;19919;-68
2023/07/01 10:05:46;;;;;;;;;;;;;;;27.43;33.08;97617.38;7368463;19;19925;-68
2023/07/01 10:08:13;;;;;;;;;;;;;;;26.57;30.19;97605.13;7366736;19;22287;-71
2023/07/01 10:10:40;;;;;;;;;;;;;;;27.08;30.47;97613.81;7373414;19;19935;-70
2023/07/01 10:13:06;;;;;;;;;;;;;;;26.83;29.86;97613.94;7373582;19;20404;-69
2023/07/01 10:15:33;;;;;;;;;;;;;;;26.74;30.54;97619.16;7377010;19;20308;-70
2023/07/01 10:18:00;;;;;;;;;;;;;;;26.81;28.70;97605.31;7369126;19;19922;-69
2023/07/01 10:20:27;;;;;;;;;;;;;;;26.75;30.72;97612.63;7372174;19;19918;-69
2023/07/01 10:22:57;;;;;;;;;;;;;;;27.39;31.47;97613.63;7372829;19;19996;-69
2023/07/01 10:25:37;;;;;;;;;;;;;;;27.57;29.13;97604.00;7375109;19;19910;-70
2023/07/01 10:28:13;;;;;;;;;;;;;;;28.11;29.72;97599.41;7369943;19;20264;-69
2023/07/01 10:30:46;;;;;;;;;;;;;;;28.19;30.55;97604.22;7373800;19;19919;-72
2023/07/01 10:33:30;;;;;;;;;;;;;;;28.41;28.61;97601.78;7368044;19;19944;-70
2023/07/01 10:36:03;;;;;;;;;;;;;;;27.99;27.86;97600.63;7366713;19;19929;-70
2023/07/01 10:38:30;;;;;;;;;;;;;;;28.00;28.68;97594.09;7367254;19;19915;-70
2023/07/01 10:40:56;;;;;;;;;;;;;;;27.76;30.19;97602.19;7367512;19;19914;-73
2023/07/01 10:43:30;;;;;;;;;;;;;;;27.71;31.38;97606.84;7370772;19;19919;-72
2023/07/01 10:46:03;;;;;;;;;;;;;;;27.67;32.40;97608.50;7367090;19;19937;-71
2023/07/01 10:48:30;;;;;;;;;;;;;;;27.89;30.68;97608.06;7372234;19;19915;-70
2023/07/01 10:51:00;;;;;;;;;;;;;;;27.85;30.69;97602.38;7367099;19;19926;-70
2023/07/01 10:53:28;;;;;;;;;;;;;;;27.84;30.25;97603.50;7363973;19;19918;-71
2023/07/01 10:56:12;;;;;;;;;;;;;;;27.29;29.76;97594.69;7365371;19;19918;-69
2023/07/01 10:58:39;;;;;;;;;;;;;;;27.66;32.54;97598.75;7368264;19;19918;-69
2023/07/01 11:01:06;;;;;;;;;;;;;;;27.94;31.08;97589.00;7370654;19;19929;-72
2023/07/01 11:03:32;;;;;;;;;;;;;;;28.13;30.70;97591.78;7375188;19;19918;-69
2023/07/01 11:06:00;;;;;;;;;;;;;;;28.11;30.93;97575.75;7366342;19;19953;-72
2023/07/01 11:08:27;;;;;;;;;;;;;;;28.05;30.36;97578.81;7366633;19;19915;-69
2023/07/01 11:10:54;;;;;;;;;;;;;;;27.78;31.00;97564.66;7365699;19;19923;-70
2023/07/01 11:13:21;;;;;;;;;;;;;;;28.11;30.18;97569.50;7371447;19;19919;-69
2023/07/01 11:16:03;;;;;;;;;;;;;;;28.44;29.99;97563.16;7369972;19;19915;-70
2023/07/01 11:18:42;;;;;;;;;;;;;;;28.74;29.04;97552.94;7367467;19;20591;-70
2023/07/01 11:21:13;;;;;;;;;;;;;;;28.77;30.45;97549.63;7364284;19;19929;-70
2023/07/01 11:23:42;;;;;;;;;;;;;;;29.12;30.51;97533.09;7372101;19;19986;-69
2023/07/01 11:26:09;;;;;;;;;;;;;;;29.16;28.87;97548.53;7365915;19;19937;-71
2023/07/01 11:28:36;;;;;;;;;;;;;;;28.79;28.71;97555.59;7371490;19;19931;-69
2023/07/01 11:31:10;;;;;;;;;;;;;;;28.55;30.55;97557.59;7358097;19;20293;-70
2023/07/01 11:33:42;;;;;;;;;;;;;;;28.30;28.96;97545.88;7368817;19;19929;-68
2023/07/01 11:36:08;;;;;;;;;;;;;;;27.98;31.43;97550.06;7362574;19;19923;-69
2023/07/01 11:38:36;;;;;;;;;;;;;;;28.24;31.16;97547.84;7368776;19;19930;-69
2023/07/01 11:41:02;;;;;;;;;;;;;;;28.29;31.83;97557.06;7366753;19;19927;-70
2023/07/01 11:43:29;;;;;;;;;;;;;;;28.36;28.42;97539.28;7372549;19;19915;-69
2023/07/01 11:45:56;;;;;;;;;;;;;;;28.18;27.75;97540.88;7370734;19;20411;-69
2023/07/01 11:48:30;;;;;;;;;;;;;;;28.23;29.44;97551.69;7366522;19;19982;-70
2023/07/01 11:50:58;;;;;;;;;;;;;;;28.41;31.80;97547.38;7367476;19;19931;-69
2023/07/01 11:53:25;;;;;;;;;;;;;;;28.66;31.75;97538.09;7370370;19;19915;-69
2023/07/01 11:55:52;;;;;;;;;;;;;;;28.87;30.61;97533.16;7369584;19;19926;-70
2023/07/01 11:58:32;;;;;;;;;;;;;;;29.06;29.46;97543.25;7367018;19;19925;-69
2023/07/01 12:00:59;;;;;;;;;;;;;;;28.76;28.44;97528.16;7364890;19;20333;-69
2023/07/01 12:03:35;;;;;;;;;;;;;;;28.52;28.41;97530.97;7370012;19;19923;-71
2023/07/01 12:06:04;;;;;;;;;;;;;;;28.50;29.82;97544.03;7365953;19;19926;-70
2023/07/01 12:08:50;;;;;;;;;;;;;;;28.24;30.03;97538.88;7369349;19;19919;-70
2023/07/01 12:11:42;;;;;;;;;;;;;;;28.72;30.00;97541.53;7370818;19;19915;-70
2023/07/01 12:14:18;;;;;;;;;;;;;;;28.74;29.92;97541.25;7365294;19;19923;-71
2023/07/01 12:16:49;;;;;;;;;;;;;;;28.39;29.26;97544.13;7365597;19;19926;-69
2023/07/01 12:19:17;;;;;;;;;;;;;;;28.18;30.98;97540.06;7368043;19;19914;-69
2023/07/01 12:21:43;;;;;;;;;;;;;;;27.69;31.27;97543.81;7373527;19;19922;-68
2023/07/01 12:24:18;;;;;;;;;;;;;;;28.23;31.06;97542.72;7372004;19;19923;-69
2023/07/01 12:26:45;;;;;;;;;;;;;;;28.11;28.78;97536.88;7372945;19;20281;-69
2023/07/01 12:29:12;;;;;;;;;;;;;;;28.22;31.93;97541.06;7370366;19;19921;-70
2023/07/01 12:31:39;;;;;;;;;;;;;;;27.81;29.41;97544.28;7376153;19;19929;-70
2023/07/01 12:34:06;;;;;;;;;;;;;;;27.49;33.02;97547.53;7373050;19;19915;-68
2023/07/01 12:36:33;;;;;;;;;;;;;;;27.22;31.97;97548.03;7376325;19;20375;-70
2023/07/01 12:39:00;;;;;;;;;;;;;;;27.39;31.83;97547.63;7370910;19;19919;-70
2023/07/01 12:41:28;;;;;;;;;;;;;;;27.09;31.88;97538.59;7374075;19;19919;-71
2023/07/01 12:43:55;;;;;;;;;;;;;;;26.97;33.48;97546.31;7375327;19;19941;-69
2023/07/01 12:46:22;;;;;;;;;;;;;;;27.00;32.22;97543.81;7369172;19;19919;-69
2023/07/01 12:48:49;;;;;;;;;;;;;;;27.10;33.34;97538.31;7375481;19;20316;-69
2023/07/01 12:51:15;;;;;;;;;;;;;;;27.12;32.94;97544.28;7374268;19;22188;-70
2023/07/01 12:53:42;;;;;;;;;;;;;;;26.89;34.26;97547.72;7376068;19;20332;-68